Time;durP1;ratioP1;P1;durP2;ratioP2;P2;SDS_P1;SDS_P2;PMS_P1;PMS_P2;Temp;Humidity;BMP_temperature;BMP_pressure;BME280_temperature;BME280_humidity;BME280_pressure;Samples;Min_cycle;Max_cycle;Signal;HPM_P1;HPM_P2
2022/10/09 00:00:47;;;;;;;13.27;3.15;;;9.00;99.90;;;;;;5053688;28;20047;-53
2022/10/09 00:03:13;;;;;;;9.77;3.28;;;9.00;99.90;;;;;;5056285;28;20459;-53
2022/10/09 00:05:39;;;;;;;;;;;9.00;99.90;;;;;;5068194;28;20036;-55
2022/10/09 00:08:04;;;;;;;12.60;4.45;;;8.90;99.90;;;;;;5059983;28;19921;-52
2022/10/09 00:10:30;;;;;;;13.13;3.88;;;8.90;99.90;;;;;;5065062;28;20067;-53
2022/10/09 00:12:56;;;;;;;14.13;3.30;;;8.90;99.90;;;;;;5056689;28;20044;-52
2022/10/09 00:15:22;;;;;;;12.32;4.05;;;8.80;99.90;;;;;;5057428;28;20037;-53
2022/10/09 00:17:47;;;;;;;8.20;3.38;;;8.80;99.90;;;;;;5070521;28;20505;-53
2022/10/09 00:20:13;;;;;;;6.72;3.45;;;8.80;99.90;;;;;;5071676;28;20119;-52
2022/10/09 00:22:39;;;;;;;12.15;3.88;;;8.80;99.90;;;;;;5064660;28;20511;-53
2022/10/09 00:25:05;;;;;;;8.53;3.70;;;8.80;99.90;;;;;;5060050;28;20099;-52
2022/10/09 00:27:31;;;;;;;6.10;3.28;;;8.80;99.90;;;;;;5063142;28;20703;-52
2022/10/09 00:29:56;;;;;;;13.38;3.50;;;8.80;99.90;;;;;;5057539;28;20037;-52
2022/10/09 00:32:22;;;;;;;8.30;3.50;;;8.90;99.90;;;;;;5055760;28;20036;-53
2022/10/09 00:34:47;;;;;;;14.70;4.03;;;8.80;99.90;;;;;;5052568;28;20052;-54
2022/10/09 00:37:13;;;;;;;14.00;4.03;;;8.90;99.90;;;;;;5056622;28;20043;-53
2022/10/09 00:39:38;;;;;;;7.53;3.80;;;8.90;99.90;;;;;;5065751;28;20051;-50
2022/10/09 00:42:04;;;;;;;6.77;3.20;;;8.90;99.90;;;;;;5058988;28;20119;-53
2022/10/09 00:44:53;;;;;;;3.25;1.20;;;8.90;99.90;;;;;;5060618;28;20048;-54
2022/10/09 00:47:24;;;;;;;4.47;1.50;;;8.80;99.90;;;;;;5067525;28;20059;-52
2022/10/09 00:49:53;;;;;;;15.80;1.30;;;8.70;99.90;;;;;;5053958;28;20033;-52
2022/10/09 00:52:20;;;;;;;14.20;1.58;;;8.60;99.90;;;;;;5064790;28;20526;-53
2022/10/09 00:54:46;;;;;;;5.47;1.50;;;8.50;99.90;;;;;;5065201;28;20068;-54
2022/10/09 00:57:12;;;;;;;4.35;2.25;;;8.50;99.90;;;;;;5071034;28;20509;-52
2022/10/09 00:59:38;;;;;;;3.67;1.40;;;8.40;99.90;;;;;;5063081;28;20037;-53
2022/10/09 01:02:04;;;;;;;5.00;1.95;;;8.40;99.90;;;;;;5055468;28;20041;-53
2022/10/09 01:04:30;;;;;;;4.93;1.40;;;8.40;99.90;;;;;;5061072;28;20040;-53
2022/10/09 01:07:04;;;;;;;5.93;2.03;;;8.30;99.90;;;;;;5065310;28;20041;-54
2022/10/09 01:09:54;;;;;;;6.35;1.90;;;8.30;99.90;;;;;;5058619;28;20047;-53
2022/10/09 01:12:35;;;;;;;11.27;4.38;;;8.30;99.90;;;;;;5068360;28;20116;-52
2022/10/09 01:15:07;;;;;;;7.75;2.25;;;8.30;99.90;;;;;;5053819;28;20104;-54
2022/10/09 01:17:41;;;;;;;4.78;2.78;;;8.30;99.90;;;;;;5064499;28;20505;-54
2022/10/09 01:20:10;;;;;;;2.95;2.05;;;8.30;99.90;;;;;;5060945;28;20045;-53
2022/10/09 01:22:57;;;;;;;3.45;2.20;;;8.30;99.90;;;;;;5059449;28;20036;-55
2022/10/09 01:25:35;;;;;;;2.55;0.93;;;8.30;99.90;;;;;;5059504;28;20044;-53
2022/10/09 01:28:04;;;;;;;2.38;1.50;;;8.20;99.90;;;;;;5063160;28;20119;-53
2022/10/09 01:30:32;;;;;;;4.97;1.58;;;8.10;99.90;;;;;;5060956;28;20490;-53
2022/10/09 01:32:58;;;;;;;12.93;2.70;;;8.10;99.90;;;;;;5050962;28;20053;-51
2022/10/09 01:35:25;;;;;;;12.05;4.80;;;8.10;99.90;;;;;;5057641;28;20111;-55
2022/10/09 01:37:53;;;;;;;10.32;5.57;;;8.10;99.90;;;;;;5053153;28;20486;-51
2022/10/09 01:40:20;;;;;;;15.10;6.30;;;8.20;99.90;;;;;;5052431;28;20052;-55
2022/10/09 01:42:45;;;;;;;14.57;6.70;;;8.20;99.90;;;;;;5051556;28;20041;-52
2022/10/09 01:45:13;;;;;;;13.13;6.00;;;8.20;99.90;;;;;;5061480;28;20044;-54
2022/10/09 01:47:38;;;;;;;18.33;6.07;;;8.20;99.90;;;;;;5056984;28;20433;-53
2022/10/09 01:50:16;;;;;;;18.50;6.30;;;8.20;99.90;;;;;;5058583;28;20029;-53
2022/10/09 01:52:56;;;;;;;8.10;5.70;;;8.20;99.90;;;;;;5052559;28;20471;-54
2022/10/09 01:55:33;;;;;;;13.98;5.97;;;8.20;99.90;;;;;;5060805;28;20431;-56
2022/10/09 01:58:07;;;;;;;;;;;8.20;99.90;;;;;;5067700;28;20123;-54
2022/10/09 02:00:36;;;;;;;12.93;5.22;;;8.20;99.90;;;;;;5069710;28;19917;-52
2022/10/09 02:03:06;;;;;;;11.07;3.97;;;8.20;99.90;;;;;;5063990;28;20040;-53
2022/10/09 02:05:31;;;;;;;13.80;5.80;;;8.20;99.90;;;;;;5069184;28;20482;-52
2022/10/09 02:07:58;;;;;;;10.50;4.57;;;8.20;99.90;;;;;;5058125;28;20082;-54
2022/10/09 02:10:25;;;;;;;16.95;4.78;;;8.20;99.90;;;;;;5058829;28;20111;-54
2022/10/09 02:12:56;;;;;;;8.15;4.72;;;8.20;99.90;;;;;;5064411;28;20050;-53
2022/10/09 02:15:27;;;;;;;8.90;4.40;;;8.20;99.90;;;;;;5066776;28;20039;-52
2022/10/09 02:17:55;;;;;;;9.10;4.88;;;8.20;99.90;;;;;;5051458;28;20045;-55
2022/10/09 02:20:27;;;;;;;10.65;4.45;;;8.20;99.90;;;;;;5057540;28;20047;-52
2022/10/09 02:22:54;;;;;;;3.92;2.65;;;8.20;99.90;;;;;;5059277;28;20068;-54
2022/10/09 02:25:20;;;;;;;13.27;3.30;;;8.10;99.90;;;;;;5056781;28;20037;-55
2022/10/09 02:27:46;;;;;;;7.97;4.13;;;8.10;99.90;;;;;;5060278;28;20143;-52
2022/10/09 02:30:13;;;;;;;7.30;3.83;;;8.10;99.90;;;;;;5065380;28;20509;-52
2022/10/09 02:32:39;;;;;;;9.30;4.47;;;8.10;99.90;;;;;;5061056;28;20033;-52
2022/10/09 02:35:05;;;;;;;8.25;5.57;;;8.10;99.90;;;;;;5053679;28;20389;-53
2022/10/09 02:37:31;;;;;;;8.40;5.13;;;8.00;99.90;;;;;;5069154;28;20146;-53
2022/10/09 02:39:56;;;;;;;5.77;4.30;;;8.10;99.90;;;;;;5070341;28;20557;-52
2022/10/09 02:42:22;;;;;;;11.77;4.73;;;8.10;99.90;;;;;;5064922;28;20124;-50
2022/10/09 02:44:47;;;;;;;12.60;5.77;;;8.00;99.90;;;;;;5055733;28;20072;-52
2022/10/09 02:47:13;;;;;;;10.90;4.93;;;8.00;99.90;;;;;;5058160;28;20041;-52
2022/10/09 02:49:38;;;;;;;8.53;4.70;;;8.00;99.90;;;;;;5050490;28;20363;-53
2022/10/09 02:52:04;;;;;;;8.77;4.17;;;8.00;99.90;;;;;;5052136;28;20128;-51
2022/10/09 02:54:30;;;;;;;8.10;4.53;;;8.00;99.90;;;;;;5061940;28;20033;-54
2022/10/09 02:56:55;;;;;;;9.00;4.27;;;8.00;99.90;;;;;;5051531;28;20043;-53
2022/10/09 02:59:21;;;;;;;3.30;2.90;;;8.00;99.90;;;;;;5070442;28;20493;-52
2022/10/09 03:01:46;;;;;;;4.80;3.17;;;7.90;99.90;;;;;;5055845;28;20099;-53
2022/10/09 03:04:12;;;;;;;6.30;2.77;;;7.90;99.90;;;;;;5064441;28;20139;-53
2022/10/09 03:06:38;;;;;;;3.43;1.67;;;7.80;99.90;;;;;;5064889;28;20453;-53
2022/10/09 03:09:03;;;;;;;5.17;3.03;;;7.80;99.90;;;;;;5060361;28;20037;-53
2022/10/09 03:11:29;;;;;;;2.33;2.13;;;7.80;99.90;;;;;;5058113;28;20657;-51
2022/10/09 03:13:55;;;;;;;1.87;1.67;;;7.80;99.90;;;;;;5060934;28;20376;-54
2022/10/09 03:16:22;;;;;;;2.72;2.20;;;7.70;99.90;;;;;;5063494;28;20061;-53
2022/10/09 03:18:49;;;;;;;6.60;3.03;;;7.70;99.90;;;;;;5064984;28;20036;-50
2022/10/09 03:21:16;;;;;;;;;;;7.80;99.90;;;;;;5060175;28;20029;-52
2022/10/09 03:23:43;;;;;;;4.00;2.30;;;7.80;99.90;;;;;;5061382;28;19917;-54
2022/10/09 03:26:14;;;;;;;4.38;2.38;;;7.80;99.90;;;;;;5053461;28;20036;-53
2022/10/09 03:28:42;;;;;;;134.32;7.18;;;7.70;99.90;;;;;;5051384;28;20041;-51
2022/10/09 03:31:09;;;;;;;6.68;1.40;;;7.70;99.90;;;;;;5051833;28;20402;-51
2022/10/09 03:33:35;;;;;;;;;;;7.60;99.90;;;;;;5064753;28;20037;-51
2022/10/09 03:36:01;;;;;;;17.50;1.17;;;7.50;99.90;;;;;;5055194;28;20475;-56
2022/10/09 03:38:26;;;;;;;0.77;0.63;;;7.40;99.90;;;;;;5067801;28;20409;-56
2022/10/09 03:40:52;;;;;;;3.40;1.40;;;7.30;99.90;;;;;;5063238;28;20167;-52
2022/10/09 03:43:18;;;;;;;1.17;0.82;;;7.30;99.90;;;;;;5059122;28;20044;-52
2022/10/09 03:45:43;;;;;;;14.23;1.95;;;7.20;99.90;;;;;;5062149;28;20040;-51
2022/10/09 03:48:10;;;;;;;1.93;1.83;;;7.20;99.90;;;;;;5055751;28;20037;-52
2022/10/09 03:50:37;;;;;;;1.38;1.13;;;7.20;99.90;;;;;;5055258;28;20044;-56
2022/10/09 03:53:04;;;;;;;1.75;0.52;;;7.20;99.90;;;;;;5070038;28;20037;-55
2022/10/09 03:55:29;;;;;;;0.70;0.45;;;7.10;99.90;;;;;;5073436;28;20118;-52
2022/10/09 03:57:55;;;;;;;2.70;0.80;;;7.10;99.90;;;;;;5056478;28;20079;-52
2022/10/09 04:00:21;;;;;;;7.72;0.82;;;7.10;99.90;;;;;;5071979;28;20139;-52
2022/10/09 04:02:46;;;;;;;0.77;0.77;;;7.00;99.90;;;;;;5066407;28;20102;-50
2022/10/09 04:05:12;;;;;;;1.10;0.77;;;7.00;99.90;;;;;;5040425;28;20045;-51
2022/10/09 04:07:38;;;;;;;250.17;11.83;;;7.00;99.90;;;;;;5059913;28;20040;-53
2022/10/09 04:10:04;;;;;;;28.00;2.63;;;6.90;99.90;;;;;;5060119;28;20672;-52
2022/10/09 04:12:29;;;;;;;64.75;3.72;;;6.70;99.90;;;;;;5061832;28;20036;-53
2022/10/09 04:14:55;;;;;;;106.17;5.37;;;6.70;99.90;;;;;;5078039;28;20127;-54
2022/10/09 04:17:20;;;;;;;19.17;2.30;;;6.60;99.90;;;;;;5070439;28;20108;-53
2022/10/09 04:19:46;;;;;;;1.77;1.47;;;6.50;99.90;;;;;;5063505;28;20036;-55
2022/10/09 04:22:12;;;;;;;2.93;1.83;;;6.40;99.90;;;;;;5067942;28;20397;-52
2022/10/09 04:24:37;;;;;;;1.30;1.20;;;6.40;99.90;;;;;;5060588;28;20053;-54
2022/10/09 04:27:03;;;;;;;6.07;2.57;;;6.40;99.90;;;;;;5070651;28;20044;-51
2022/10/09 04:29:28;;;;;;;4.05;3.22;;;6.40;99.90;;;;;;5059301;28;20041;-53
2022/10/09 04:31:54;;;;;;;1.63;1.53;;;6.50;99.90;;;;;;5055912;28;20040;-50
2022/10/09 04:34:19;;;;;;;2.57;2.37;;;6.50;99.90;;;;;;5070920;28;20043;-52
2022/10/09 04:36:45;;;;;;;56.20;4.60;;;6.50;99.90;;;;;;5072710;28;20039;-54
2022/10/09 04:39:11;;;;;;;105.70;4.87;;;6.50;99.90;;;;;;5067573;28;20123;-53
2022/10/09 04:41:36;;;;;;;7.38;2.58;;;6.40;99.90;;;;;;5055001;28;20116;-54
2022/10/09 04:44:02;;;;;;;3.87;3.30;;;6.30;99.90;;;;;;5065986;28;20044;-55
2022/10/09 04:46:27;;;;;;;5.63;2.33;;;6.30;99.90;;;;;;5058045;28;20137;-54
2022/10/09 04:48:53;;;;;;;5.10;3.47;;;6.30;99.90;;;;;;5065755;28;20038;-55
2022/10/09 04:51:18;;;;;;;7.13;3.40;;;6.40;99.90;;;;;;5061071;28;20037;-52
2022/10/09 04:53:45;;;;;;;6.13;3.53;;;6.40;99.90;;;;;;5053946;28;20433;-55
2022/10/09 04:56:13;;;;;;;8.57;4.75;;;6.40;99.90;;;;;;5062167;28;20048;-51
2022/10/09 04:58:39;;;;;;;7.60;4.50;;;6.50;99.90;;;;;;5054437;28;20044;-51
2022/10/09 05:01:17;;;;;;;18.40;4.38;;;6.50;99.90;;;;;;5057399;28;20048;-50
2022/10/09 05:03:43;;;;;;;10.65;4.50;;;6.40;99.90;;;;;;5053273;28;20056;-51
2022/10/09 05:06:10;;;;;;;12.80;4.57;;;6.50;99.90;;;;;;5062397;28;20048;-51
2022/10/09 05:08:36;;;;;;;3.28;2.20;;;6.50;99.90;;;;;;5067496;28;20041;-51
2022/10/09 05:11:04;;;;;;;9.18;3.65;;;6.40;99.90;;;;;;5064709;28;20032;-52
2022/10/09 05:13:31;;;;;;;18.15;3.80;;;6.40;99.90;;;;;;5059514;28;20046;-52
2022/10/09 05:16:00;;;;;;;7.30;3.63;;;6.40;99.90;;;;;;5069264;28;20056;-52
2022/10/09 05:18:26;;;;;;;3.90;3.50;;;6.40;99.90;;;;;;5057929;28;20040;-51
2022/10/09 05:20:51;;;;;;;6.63;4.53;;;6.40;99.90;;;;;;5068470;28;20449;-52
2022/10/09 05:23:17;;;;;;;7.67;4.63;;;6.50;99.90;;;;;;5059813;28;20037;-54
2022/10/09 05:25:42;;;;;;;11.43;4.80;;;6.50;99.90;;;;;;5070884;28;20037;-51
2022/10/09 05:28:08;;;;;;;6.13;5.20;;;6.60;99.90;;;;;;5054819;28;20029;-52
2022/10/09 05:30:33;;;;;;;9.07;3.23;;;6.60;99.90;;;;;;5072014;28;20093;-51
2022/10/09 05:32:59;;;;;;;8.37;3.20;;;6.60;99.90;;;;;;5064284;28;20049;-52
2022/10/09 05:35:24;;;;;;;77.63;5.30;;;6.60;99.90;;;;;;5053127;28;20461;-51
2022/10/09 05:37:50;;;;;;;39.73;5.30;;;6.50;99.90;;;;;;5066283;28;20032;-53
2022/10/09 05:40:15;;;;;;;139.33;9.13;;;6.50;99.90;;;;;;5070683;28;20036;-51
2022/10/09 05:42:41;;;;;;;64.67;5.57;;;6.40;99.90;;;;;;5059849;28;20033;-52
2022/10/09 05:45:07;;;;;;;90.50;6.87;;;6.30;99.90;;;;;;5064535;28;20037;-51
2022/10/09 05:47:33;;;;;;;187.45;10.52;;;6.30;99.90;;;;;;5059398;28;20037;-54
2022/10/09 05:49:58;;;;;;;12.33;4.17;;;6.20;99.90;;;;;;5063296;28;20567;-54
2022/10/09 05:52:24;;;;;;;13.90;4.20;;;6.10;99.90;;;;;;5060975;28;20283;-52
2022/10/09 05:54:49;;;;;;;31.50;5.03;;;6.10;99.90;;;;;;5058332;28;20041;-54
2022/10/09 05:57:15;;;;;;;74.13;6.63;;;6.20;99.90;;;;;;5059261;28;20409;-52
2022/10/09 05:59:40;;;;;;;192.50;8.73;;;6.20;99.90;;;;;;5053367;28;20041;-51
2022/10/09 06:02:06;;;;;;;121.37;7.60;;;6.20;99.90;;;;;;5059077;28;20033;-52
2022/10/09 06:04:31;;;;;;;208.00;11.43;;;6.10;99.90;;;;;;5069171;28;20611;-53
2022/10/09 06:06:57;;;;;;;32.87;5.83;;;6.00;99.90;;;;;;5063355;28;20040;-52
2022/10/09 06:09:24;;;;;;;14.23;4.80;;;5.90;99.90;;;;;;5068412;28;20107;-53
2022/10/09 06:11:51;;;;;;;277.25;16.13;;;5.90;99.90;;;;;;5066533;28;20037;-51
2022/10/09 06:14:17;;;;;;;433.95;22.75;;;5.90;99.90;;;;;;5055345;28;20548;-52
2022/10/09 06:16:43;;;;;;;342.15;20.05;;;5.80;99.90;;;;;;5051262;28;20052;-53
2022/10/09 06:19:14;;;;;;;239.70;14.15;;;5.80;99.90;;;;;;5051924;28;20114;-50
2022/10/09 06:21:40;;;;;;;11.15;4.13;;;5.70;99.90;;;;;;5050508;28;20119;-52
2022/10/09 06:24:06;;;;;;;3.95;3.58;;;5.70;99.90;;;;;;5066795;28;20121;-54
2022/10/09 06:26:32;;;;;;;85.13;7.63;;;5.80;99.90;;;;;;5050356;28;20090;-50
2022/10/09 06:28:59;;;;;;;92.32;8.10;;;5.90;99.90;;;;;;5055239;28;20071;-53
2022/10/09 06:31:28;;;;;;;14.20;3.47;;;6.00;99.90;;;;;;5069077;28;20511;-52
2022/10/09 06:33:54;;;;;;;3.42;3.10;;;6.10;99.90;;;;;;5056375;28;20029;-52
2022/10/09 06:36:25;;;;;;;164.45;9.98;;;6.20;99.90;;;;;;5063832;28;20577;-51
2022/10/09 06:38:52;;;;;;;97.75;7.10;;;6.30;99.90;;;;;;5059348;28;20066;-53
2022/10/09 06:41:20;;;;;;;70.13;6.63;;;6.40;99.90;;;;;;5061982;28;20045;-53
2022/10/09 06:44:10;;;;;;;6.63;3.65;;;6.60;99.90;;;;;;5066511;28;20303;-52
2022/10/09 06:46:40;;;;;;;12.73;3.33;;;7.00;99.90;;;;;;5069552;28;20158;-51
2022/10/09 06:49:07;;;;;;;11.98;3.38;;;7.60;99.90;;;;;;5057295;28;20058;-53
2022/10/09 06:51:34;;;;;;;6.05;2.72;;;8.20;99.90;;;;;;5058371;28;20045;-52
2022/10/09 06:54:02;;;;;;;6.10;2.20;;;8.60;99.90;;;;;;5052945;28;20091;-53
2022/10/09 06:56:30;;;;;;;2.95;1.90;;;9.00;99.90;;;;;;5059249;28;20080;-56
2022/10/09 06:58:59;;;;;;;3.85;3.20;;;9.40;99.90;;;;;;5064830;28;20028;-52
2022/10/09 07:01:26;;;;;;;6.55;3.30;;;9.70;99.90;;;;;;5069980;28;20355;-52
2022/10/09 07:03:54;;;;;;;11.27;3.85;;;9.80;99.90;;;;;;5062082;28;20055;-50
2022/10/09 07:06:23;;;;;;;3.92;3.63;;;9.70;99.90;;;;;;5062929;28;20048;-54
2022/10/09 07:08:52;;;;;;;5.75;4.10;;;9.50;99.90;;;;;;5051484;28;20041;-54
2022/10/09 07:11:23;;;;;;;14.00;4.13;;;9.50;99.90;;;;;;5050225;28;20041;-51
2022/10/09 07:13:54;;;;;;;8.90;4.32;;;9.50;99.90;;;;;;5061125;28;20032;-51
2022/10/09 07:16:23;;;;;;;7.90;3.90;;;9.60;99.90;;;;;;5065298;28;20115;-52
2022/10/09 07:18:48;;;;;;;19.27;5.18;;;9.60;99.90;;;;;;5059837;28;20040;-51
2022/10/09 07:21:15;;;;;;;7.15;4.35;;;9.60;99.90;;;;;;5069619;28;20089;-50
2022/10/09 07:23:40;;;;;;;12.02;5.20;;;9.60;99.90;;;;;;5057954;28;20492;-52
2022/10/09 07:26:13;;;;;;;13.63;5.80;;;9.50;99.90;;;;;;5048864;28;20359;-51
2022/10/09 07:28:40;;;;;;;9.25;5.78;;;9.60;99.90;;;;;;5066957;28;20075;-51
2022/10/09 07:31:05;;;;;;;13.95;7.57;;;9.70;99.90;;;;;;5056945;28;20045;-49
2022/10/09 07:33:31;;;;;;;18.23;7.85;;;9.70;99.90;;;;;;5057070;28;20039;-54
2022/10/09 07:35:59;;;;;;;15.63;7.22;;;9.80;99.90;;;;;;5070134;28;20068;-52
2022/10/09 07:38:26;;;;;;;11.07;6.93;;;9.90;99.90;;;;;;5064235;28;20117;-51
2022/10/09 07:40:52;;;;;;;22.77;7.07;;;10.00;99.90;;;;;;5049993;28;20037;-66
2022/10/09 07:43:18;;;;;;;11.90;6.88;;;10.00;99.90;;;;;;5053755;28;20401;-55
2022/10/09 07:45:44;;;;;;;13.20;9.15;;;10.10;99.90;;;;;;5067679;28;20036;-53
2022/10/09 07:48:09;;;;;;;15.75;10.75;;;10.10;99.90;;;;;;5068466;28;20037;-55
2022/10/09 07:50:35;;;;;;;20.77;10.03;;;10.10;99.90;;;;;;5069600;28;20037;-55
2022/10/09 07:53:01;;;;;;;15.80;10.82;;;10.20;99.90;;;;;;5068740;28;20032;-52
2022/10/09 07:55:26;;;;;;;16.23;8.40;;;10.20;99.90;;;;;;5050272;28;20037;-52
2022/10/09 07:57:52;;;;;;;15.93;9.27;;;10.20;99.90;;;;;;5069382;28;20037;-53
2022/10/09 08:00:17;;;;;;;17.73;9.03;;;10.30;99.90;;;;;;5066611;28;20040;-55
2022/10/09 08:02:43;;;;;;;17.13;9.95;;;10.30;99.90;;;;;;5069638;28;20032;-53
2022/10/09 08:05:09;;;;;;;16.17;9.17;;;10.40;99.90;;;;;;5052659;28;20044;-52
2022/10/09 08:07:35;;;;;;;20.60;9.90;;;10.50;99.90;;;;;;5049790;28;20124;-52
2022/10/09 08:10:01;;;;;;;15.85;8.52;;;10.60;99.90;;;;;;5065229;28;20124;-56
2022/10/09 08:12:27;;;;;;;;;;;10.60;99.90;;;;;;5065114;28;20036;-54
2022/10/09 08:14:52;;;;;;;18.63;10.95;;;10.70;99.90;;;;;;5066965;28;19922;-58
2022/10/09 08:17:18;;;;;;;14.63;10.03;;;10.80;99.90;;;;;;5060179;28;20047;-53
2022/10/09 08:19:43;;;;;;;20.97;10.77;;;10.90;99.90;;;;;;5053934;28;20036;-56
2022/10/09 08:22:10;;;;;;;18.13;10.40;;;11.00;99.90;;;;;;5048285;28;20053;-59
2022/10/09 08:24:37;;;;;;;20.75;10.15;;;11.00;99.90;;;;;;5050028;28;20257;-53
2022/10/09 08:27:02;;;;;;;13.60;10.40;;;11.10;99.90;;;;;;5053644;28;20032;-54
2022/10/09 08:29:28;;;;;;;16.50;9.77;;;11.20;99.90;;;;;;5057439;28;20058;-54
2022/10/09 08:31:54;;;;;;;19.02;9.00;;;11.20;99.90;;;;;;5056003;28;20482;-56
2022/10/09 08:34:19;;;;;;;14.33;8.87;;;11.40;99.90;;;;;;5059158;28;20032;-53
2022/10/09 08:36:45;;;;;;;17.43;9.80;;;11.40;99.90;;;;;;5058653;28;20040;-55
2022/10/09 08:39:11;;;;;;;20.10;9.30;;;11.50;99.90;;;;;;5061809;28;20024;-52
2022/10/09 08:41:46;;;;;;;19.10;9.77;;;11.50;99.90;;;;;;5071196;28;20089;-56
2022/10/09 08:44:24;;;;;;;16.52;8.85;;;11.60;99.90;;;;;;5070160;28;20078;-55
2022/10/09 08:47:07;;;;;;;16.95;9.27;;;11.60;99.90;;;;;;5072364;28;20409;-52
2022/10/09 08:49:48;;;;;;;16.73;8.82;;;11.60;99.90;;;;;;5062870;28;20106;-52
2022/10/09 08:52:41;;;;;;;12.45;7.97;;;11.60;99.90;;;;;;5052603;28;20104;-55
2022/10/09 08:55:15;;;;;;;18.25;8.48;;;11.70;99.90;;;;;;5070002;28;20032;-52
2022/10/09 08:57:49;;;;;;;15.55;8.80;;;11.80;99.90;;;;;;5072651;28;20052;-52
2022/10/09 09:00:18;;;;;;;15.57;8.20;;;11.80;99.90;;;;;;5069953;28;20040;-52
2022/10/09 09:03:10;;;;;;;12.05;8.02;;;12.00;99.90;;;;;;5071107;28;20045;-55
2022/10/09 09:05:40;;;;;;;13.07;7.65;;;12.20;99.90;;;;;;5070250;28;20040;-52
2022/10/09 09:08:15;;;;;;;14.70;8.32;;;12.30;99.90;;;;;;5064124;28;20387;-54
2022/10/09 09:11:04;;;;;;;7.45;5.63;;;12.40;99.90;;;;;;5053504;28;20053;-54
2022/10/09 09:13:55;;;;;;;14.05;6.82;;;12.60;99.90;;;;;;5021890;28;20056;-54
2022/10/09 09:16:48;;;;;;;13.10;6.57;;;12.70;99.90;;;;;;5060667;28;20039;-53
2022/10/09 09:19:41;;;;;;;12.82;5.90;;;12.80;99.90;;;;;;5055779;28;20075;-54
2022/10/09 09:22:11;;;;;;;13.48;5.78;;;12.80;99.90;;;;;;5061892;28;20029;-53
2022/10/09 09:24:43;;;;;;;11.07;6.43;;;12.90;99.90;;;;;;5065469;28;20036;-53
2022/10/09 09:27:14;;;;;;;13.23;5.82;;;12.90;99.90;;;;;;5072493;28;20067;-54
2022/10/09 09:29:53;;;;;;;9.38;5.53;;;12.90;99.90;;;;;;5069652;28;20441;-55
2022/10/09 09:32:22;;;;;;;11.77;5.43;;;13.00;99.90;;;;;;5072063;28;20079;-54
2022/10/09 09:34:48;;;;;;;11.98;5.53;;;13.10;99.90;;;;;;5067994;28;20029;-55
2022/10/09 09:37:14;;;;;;;12.55;5.95;;;13.00;99.90;;;;;;5051885;28;20536;-54
2022/10/09 09:39:40;;;;;;;12.45;6.53;;;13.10;99.90;;;;;;5052963;28;20383;-54
2022/10/09 09:42:09;;;;;;;12.10;4.60;;;13.20;99.90;;;;;;5051848;28;20044;-55
2022/10/09 09:44:38;;;;;;;19.20;6.63;;;13.30;99.90;;;;;;5050422;28;20064;-53
2022/10/09 09:47:12;;;;;;;12.15;5.00;;;13.40;99.90;;;;;;5071854;28;20040;-56
2022/10/09 09:49:37;;;;;;;18.85;6.15;;;13.50;99.90;;;;;;5070928;28;20498;-56
2022/10/09 09:52:08;;;;;;;15.60;5.83;;;13.60;99.90;;;;;;5054388;28;20033;-56
2022/10/09 09:54:33;;;;;;;12.43;4.10;;;13.80;99.90;;;;;;5051221;28;20037;-54
2022/10/09 09:57:00;;;;;;;15.90;5.53;;;13.80;99.90;;;;;;5069909;28;20131;-55
2022/10/09 09:59:28;;;;;;;;;;;13.90;99.90;;;;;;5063038;28;20041;-56
2022/10/09 10:02:11;;;;;;;9.90;4.20;;;14.00;99.90;;;;;;5067921;28;19920;-53
2022/10/09 10:04:46;;;;;;;10.07;4.13;;;14.00;99.90;;;;;;5070738;28;20044;-56
2022/10/09 10:07:12;;;;;;;8.00;3.53;;;14.00;99.90;;;;;;5051692;28;20068;-55
2022/10/09 10:09:37;;;;;;;16.47;3.93;;;14.10;99.90;;;;;;5050975;28;20110;-55
2022/10/09 10:12:05;;;;;;;12.18;3.15;;;14.10;99.90;;;;;;5058568;28;20036;-56
2022/10/09 10:14:33;;;;;;;11.10;2.55;;;14.20;99.90;;;;;;5070199;28;20146;-58
2022/10/09 10:16:59;;;;;;;10.50;3.03;;;14.30;99.90;;;;;;5054516;28;20045;-52
2022/10/09 10:19:28;;;;;;;11.50;3.05;;;14.30;99.90;;;;;;5051075;28;20051;-54
2022/10/09 10:22:03;;;;;;;7.72;3.30;;;14.40;99.90;;;;;;5051973;28;20048;-56
2022/10/09 10:24:40;;;;;;;15.05;3.92;;;14.50;99.90;;;;;;5050503;28;20504;-56
2022/10/09 10:27:06;;;;;;;8.60;3.30;;;14.60;99.90;;;;;;5052681;28;20087;-54
2022/10/09 10:29:39;;;;;;;9.70;3.30;;;14.70;99.90;;;;;;5050882;28;20098;-54
2022/10/09 10:32:18;;;;;;;9.20;3.25;;;14.70;99.90;;;;;;5052459;28;20371;-55
2022/10/09 10:34:50;;;;;;;7.35;2.83;;;14.70;99.90;;;;;;5050387;28;20044;-55
2022/10/09 10:37:28;;;;;;;12.23;3.42;;;14.60;99.90;;;;;;5066187;28;20517;-54
2022/10/09 10:40:04;;;;;;;6.68;3.20;;;14.70;99.90;;;;;;5069695;28;20036;-55
2022/10/09 10:42:52;;;;;;;13.50;3.28;;;14.80;99.90;;;;;;5067493;28;20040;-55
2022/10/09 10:45:25;;;;;;;9.88;2.78;;;14.90;99.90;;;;;;5050650;28;20049;-55
2022/10/09 10:47:54;;;;;;;15.27;3.25;;;15.00;99.90;;;;;;5069534;28;20040;-54
2022/10/09 10:50:22;;;;;;;6.30;2.30;;;15.00;99.90;;;;;;5070161;28;20075;-55
2022/10/09 10:53:22;;;;;;;4.68;1.60;;;15.10;99.90;;;;;;5067830;28;20052;-55
2022/10/09 10:56:10;;;;;;;10.85;2.30;;;15.10;99.90;;;;;;5045875;28;20055;-53
2022/10/09 10:59:04;;;;;;;7.20;1.83;;;15.10;99.90;;;;;;5070643;28;20113;-54
2022/10/09 11:02:00;;;;;;;4.53;1.38;;;15.20;99.90;;;;;;5068395;28;20410;-56
2022/10/09 11:04:38;;;;;;;8.07;1.08;;;15.30;99.90;;;;;;5061010;28;20059;-54
2022/10/09 11:07:24;;;;;;;4.25;0.80;;;15.40;99.90;;;;;;5059475;28;20048;-54
2022/10/09 11:10:10;;;;;;;8.95;2.70;;;15.50;99.90;;;;;;5050925;28;20037;-54
2022/10/09 11:12:59;;;;;;;7.53;2.50;;;15.50;99.90;;;;;;5051599;28;20122;-56
2022/10/09 11:15:44;;;;;;;8.07;1.80;;;15.50;99.90;;;;;;5061819;28;20036;-56
2022/10/09 11:18:43;;;;;;;8.98;3.20;;;15.60;99.90;;;;;;5049422;28;20521;-55
2022/10/09 11:21:23;;;;;;;7.53;2.15;;;15.60;99.90;;;;;;5049701;28;20440;-57
2022/10/09 11:24:12;;;;;;;11.25;2.67;;;15.60;99.90;;;;;;5049645;28;20045;-59
2022/10/09 11:27:00;;;;;;;8.02;4.05;;;15.60;99.90;;;;;;5049175;28;20430;-55
2022/10/09 11:29:40;;;;;;;6.72;2.10;;;15.60;99.90;;;;;;5049613;28;20065;-57
2022/10/09 11:32:33;;;;;;;9.82;2.53;;;15.60;99.70;;;;;;5049999;28;20379;-58
2022/10/09 11:35:20;;;;;;;5.28;2.25;;;15.70;99.90;;;;;;5048836;28;20141;-57
2022/10/09 11:38:03;;;;;;;7.25;2.35;;;15.70;99.70;;;;;;5061769;28;20048;-57
2022/10/09 11:40:47;;;;;;;8.10;3.10;;;15.80;99.90;;;;;;5049903;28;20247;-57
2022/10/09 11:43:34;;;;;;;6.28;2.85;;;15.80;99.30;;;;;;5048507;28;20053;-56
2022/10/09 11:46:14;;;;;;;9.80;3.03;;;15.90;99.60;;;;;;5053797;28;20436;-55
2022/10/09 11:48:58;;;;;;;10.63;2.97;;;15.90;99.50;;;;;;5062137;28;20074;-58
2022/10/09 11:51:28;;;;;;;10.07;2.47;;;15.90;99.20;;;;;;5066564;28;20452;-57
2022/10/09 11:53:54;;;;;;;7.43;1.80;;;15.90;99.10;;;;;;5069668;28;20611;-58
2022/10/09 11:56:26;;;;;;;10.23;2.60;;;15.90;99.00;;;;;;5067788;28;20064;-57
2022/10/09 11:58:57;;;;;;;4.50;1.73;;;15.90;98.90;;;;;;5069711;28;20045;-58
2022/10/09 12:01:27;;;;;;;5.15;2.70;;;16.00;98.60;;;;;;5067037;28;20516;-58
2022/10/09 12:04:19;;;;;;;7.05;2.40;;;16.00;98.80;;;;;;5069130;28;20053;-56
2022/10/09 12:06:46;;;;;;;5.97;2.10;;;16.00;98.30;;;;;;5066771;28;20044;-57
2022/10/09 12:09:25;;;;;;;7.22;1.85;;;16.00;98.30;;;;;;5068968;28;20493;-58
2022/10/09 12:12:06;;;;;;;12.18;2.40;;;16.00;97.80;;;;;;5070025;28;20041;-56
2022/10/09 12:14:33;;;;;;;6.13;1.50;;;15.90;97.80;;;;;;5066188;28;20508;-58
2022/10/09 12:16:59;;;;;;;9.30;1.80;;;16.00;98.00;;;;;;5068644;28;20166;-57
2022/10/09 12:19:39;;;;;;;4.88;0.90;;;16.00;97.10;;;;;;5072295;28;20509;-58
2022/10/09 12:22:22;;;;;;;6.13;0.98;;;16.00;96.60;;;;;;5067375;28;20428;-57
2022/10/09 12:24:52;;;;;;;4.93;1.55;;;16.00;96.80;;;;;;5069304;28;20408;-56
2022/10/09 12:27:24;;;;;;;9.07;2.17;;;16.10;97.00;;;;;;5052113;28;20103;-57
2022/10/09 12:29:55;;;;;;;5.82;2.28;;;16.20;97.20;;;;;;5073116;28;20040;-57
2022/10/09 12:32:32;;;;;;;6.78;2.00;;;16.20;96.90;;;;;;5070072;28;20036;-58
2022/10/09 12:34:59;;;;;;;8.07;1.95;;;16.20;96.90;;;;;;5072785;28;20041;-54
2022/10/09 12:37:34;;;;;;;10.00;1.52;;;16.30;96.80;;;;;;5071094;28;20037;-60
2022/10/09 12:40:24;;;;;;;5.85;1.55;;;16.30;95.80;;;;;;5056277;28;20502;-54
2022/10/09 12:42:52;;;;;;;19.00;2.00;;;16.30;96.30;;;;;;5053607;28;20091;-63
2022/10/09 12:45:23;;;;;;;15.43;1.50;;;16.40;96.40;;;;;;5052889;28;20073;-54
2022/10/09 12:47:50;;;;;;;10.75;2.03;;;16.50;96.30;;;;;;5059917;28;20090;-58
2022/10/09 12:50:25;;;;;;;11.63;3.03;;;16.50;96.20;;;;;;5070049;28;20449;-58
2022/10/09 12:52:58;;;;;;;7.82;2.42;;;16.50;96.00;;;;;;5060726;28;20032;-55
2022/10/09 12:55:32;;;;;;;12.70;2.28;;;16.50;96.10;;;;;;5068408;28;20444;-58
2022/10/09 12:58:02;;;;;;;4.43;1.70;;;16.60;95.90;;;;;;5071207;28;20044;-54
2022/10/09 13:00:30;;;;;;;11.57;3.33;;;16.60;95.80;;;;;;5059843;28;20041;-58
2022/10/09 13:02:55;;;;;;;9.05;2.35;;;16.50;95.60;;;;;;5053279;28;20398;-54